createdAt,value
2023-04-27T00:02:25.476Z,99242.66
2023-04-27T00:07:28.497Z,99235.72
2023-04-27T00:12:31.516Z,99236.16
2023-04-27T00:17:35.888Z,99228.06
2023-04-27T00:22:39.286Z,99234.72
2023-04-27T00:27:42.134Z,99229.69
2023-04-27T00:32:46.879Z,99230.63
2023-04-27T00:37:54.868Z,99239.84
2023-04-27T00:42:57.728Z,99240.66
2023-04-27T00:48:03.246Z,99243.38
2023-04-27T00:53:07.919Z,99249.50
2023-04-27T00:58:10.895Z,99244.59
2023-04-27T01:03:15.445Z,99248.13
2023-04-27T01:08:20.041Z,99251.38
2023-04-27T01:13:23.308Z,99252.03
2023-04-27T01:18:27.618Z,99254.06
2023-04-27T01:23:34.224Z,99258.75
2023-04-27T01:28:37.156Z,99253.41
2023-04-27T01:33:40.122Z,99261.38
2023-04-27T01:38:45.114Z,99257.78
2023-04-27T01:43:49.221Z,99264.63
2023-04-27T01:48:52.085Z,99275.50
2023-04-27T01:53:56.383Z,99270.63
2023-04-27T01:58:59.314Z,99277.03
2023-04-27T02:04:02.616Z,99280.44
2023-04-27T02:09:07.122Z,99276.00
2023-04-27T02:14:10.005Z,99275.53
2023-04-27T02:19:13.121Z,99278.06
2023-04-27T02:24:17.518Z,99277.75
2023-04-27T02:29:21.573Z,99282.03
2023-04-27T02:34:24.854Z,99278.66
2023-04-27T02:39:29.121Z,99283.13
2023-04-27T02:44:32.056Z,99281.72
2023-04-27T02:49:37.410Z,99281.16
2023-04-27T02:54:42.370Z,99277.06
2023-04-27T02:59:45.217Z,99283.53
2023-04-27T03:04:48.681Z,99279.16
2023-04-27T03:09:52.970Z,99282.56
2023-04-27T03:14:55.944Z,99292.63
2023-04-27T03:20:00.679Z,99280.56
2023-04-27T03:25:05.636Z,99291.50
2023-04-27T03:30:09.779Z,99302.97
2023-04-27T03:35:12.822Z,99314.78
2023-04-27T03:40:17.129Z,99322.44
2023-04-27T03:45:22.347Z,99318.22
2023-04-27T03:50:26.965Z,99325.78
2023-04-27T03:55:32.191Z,99330.56
2023-04-27T04:00:36.013Z,99331.53
2023-04-27T04:05:38.983Z,99332.50
2023-04-27T04:10:43.209Z,99342.84
2023-04-27T04:15:46.530Z,99342.34
2023-04-27T04:20:49.450Z,99347.59
2023-04-27T04:25:54.337Z,99340.91
2023-04-27T04:30:57.631Z,99352.19
2023-04-27T04:36:00.535Z,99352.22
2023-04-27T04:41:04.823Z,99355.34
2023-04-27T04:46:09.459Z,99357.13
2023-04-27T04:51:12.429Z,99356.16
2023-04-27T04:56:16.969Z,99357.03
2023-04-27T05:01:19.921Z,99369.88
2023-04-27T05:06:24.511Z,99366.34
2023-04-27T05:11:28.803Z,99367.38
2023-04-27T05:16:31.796Z,99366.88
2023-04-27T05:21:34.753Z,99371.50
2023-04-27T05:26:38.988Z,99367.84
2023-04-27T05:31:41.840Z,99366.69
2023-04-27T05:36:44.714Z,99378.22
2023-04-27T05:41:49.101Z,99367.88
2023-04-27T05:46:52.012Z,99375.88
2023-04-27T05:51:54.937Z,99371.50
2023-04-27T05:56:59.155Z,99364.72
2023-04-27T06:02:02.044Z,99363.56
2023-04-27T06:07:10.286Z,99366.03
2023-04-27T06:12:14.656Z,99357.59
2023-04-27T06:17:17.575Z,99366.97
2023-04-27T06:22:20.446Z,99359.53
2023-04-27T06:27:24.811Z,99364.88
2023-04-27T06:32:27.761Z,99367.63
2023-04-27T06:37:30.651Z,99375.72
2023-04-27T06:42:34.931Z,99374.84
2023-04-27T06:47:37.798Z,99366.53
2023-04-27T06:52:40.772Z,99370.47
2023-04-27T06:57:45.081Z,99371.59
2023-04-27T07:02:48.200Z,99367.34
2023-04-27T07:07:51.194Z,99366.13
2023-04-27T07:12:55.617Z,99370.56
2023-04-27T07:17:58.727Z,99377.13
2023-04-27T07:23:02.007Z,99376.56
2023-04-27T07:28:06.798Z,99371.31
2023-04-27T07:33:09.909Z,99375.72
2023-04-27T07:38:12.811Z,99379.03
2023-04-27T07:43:17.937Z,99384.78
2023-04-27T07:48:21.422Z,99386.44
2023-04-27T07:53:24.368Z,99395.03
2023-04-27T07:58:28.634Z,99393.09
2023-04-27T08:03:31.837Z,99389.84
2023-04-27T08:08:34.913Z,99399.44
2023-04-27T08:13:39.473Z,99410.19
2023-04-27T08:18:42.383Z,99407.41
2023-04-27T08:23:45.296Z,99399.38
2023-04-27T08:28:50.104Z,99400.31
2023-04-27T08:33:53.361Z,99393.34
2023-04-27T08:38:56.267Z,99400.66
2023-04-27T08:44:01.127Z,99403.19
2023-04-27T08:49:04.100Z,99396.66
2023-04-27T08:54:07.020Z,99392.25
2023-04-27T08:59:17.782Z,99390.06
2023-04-27T09:04:21.152Z,99392.06
2023-04-27T09:09:25.181Z,99393.22
2023-04-27T09:14:35.274Z,99385.63
2023-04-27T09:19:38.247Z,99394.00
2023-04-27T09:24:52.125Z,99392.00
2023-04-27T09:29:56.365Z,99386.78
2023-04-27T09:34:59.300Z,99370.53
2023-04-27T09:40:04.331Z,99385.72
2023-04-27T09:45:11.152Z,99380.81
2023-04-27T09:50:14.949Z,99375.41
2023-04-27T09:55:21.064Z,99385.13
2023-04-27T10:00:40.218Z,99387.75
2023-04-27T10:06:21.996Z,99381.88
2023-04-27T10:11:39.545Z,99377.44
2023-04-27T10:16:47.572Z,99376.25
2023-04-27T10:22:00.380Z,99384.31
2023-04-27T10:27:06.382Z,99377.16
2023-04-27T10:32:13.205Z,99376.44
2023-04-27T10:37:16.831Z,99374.53
2023-04-27T10:42:29.422Z,99370.75
2023-04-27T10:47:41.729Z,99379.66
2023-04-27T10:52:46.705Z,99369.88
2023-04-27T10:57:51.845Z,99374.78
2023-04-27T11:02:58.122Z,99382.88
2023-04-27T11:08:08.741Z,99371.38
2023-04-27T11:13:14.253Z,99363.13
2023-04-27T11:18:20.011Z,99372.16
2023-04-27T11:23:27.228Z,99373.16
2023-04-27T11:28:30.084Z,99367.63
2023-04-27T11:33:35.970Z,99361.94
2023-04-27T11:38:39.021Z,99362.97
2023-04-27T11:43:43.547Z,99365.31
2023-04-27T11:48:47.853Z,99385.53
2023-04-27T11:53:52.177Z,99368.13
2023-04-27T11:58:55.155Z,99386.06
2023-04-27T12:04:02.231Z,99384.09
2023-04-27T12:09:05.557Z,99384.09
2023-04-27T12:14:08.414Z,99385.81
2023-04-27T12:19:12.915Z,99386.75
2023-04-27T12:24:15.972Z,99378.31
2023-04-27T12:29:19.185Z,99378.72
2023-04-27T12:34:23.440Z,99378.28
2023-04-27T12:39:26.778Z,99389.09
2023-04-27T12:44:29.906Z,99383.13
2023-04-27T12:49:34.235Z,99390.31
2023-04-27T12:54:37.465Z,99382.47
2023-04-27T12:59:41.482Z,99391.22
2023-04-27T13:04:46.386Z,99384.84
2023-04-27T13:09:49.383Z,99388.31
2023-04-27T13:14:52.293Z,99386.47
2023-04-27T13:19:56.579Z,99367.88
2023-04-27T13:24:59.532Z,99371.78
2023-04-27T13:30:02.425Z,99375.56
2023-04-27T13:35:07.807Z,99377.94
2023-04-27T13:40:12.572Z,99363.56
2023-04-27T13:45:15.781Z,99357.50
2023-04-27T13:50:20.054Z,99359.25
2023-04-27T13:55:22.965Z,99356.41
2023-04-27T14:00:26.259Z,99340.97
2023-04-27T14:05:32.056Z,99361.22
2023-04-27T14:10:37.384Z,99360.25
2023-04-27T14:15:40.272Z,99348.16
2023-04-27T14:20:46.050Z,99345.28
2023-04-27T14:25:49.092Z,99346.44
2023-04-27T14:30:52.675Z,99343.94
2023-04-27T14:35:57.765Z,99339.19
2023-04-27T14:41:02.085Z,99331.13
2023-04-27T14:46:19.638Z,99346.03
2023-04-27T14:51:24.942Z,99341.06
2023-04-27T14:56:28.058Z,99344.22
2023-04-27T15:01:32.265Z,99346.22
2023-04-27T15:06:37.033Z,99339.47
2023-04-27T15:11:39.975Z,99349.81
2023-04-27T15:16:42.879Z,99354.69
2023-04-27T15:21:48.585Z,99346.44
2023-04-27T15:26:52.273Z,99353.75
2023-04-27T15:31:55.830Z,99341.72
2023-04-27T15:37:00.165Z,99350.28
2023-04-27T15:42:04.334Z,99332.34
2023-04-27T15:47:07.666Z,99341.41
2023-04-27T15:52:12.065Z,99346.69
2023-04-27T15:57:15.024Z,99330.97
2023-04-27T16:02:17.999Z,99329.38
2023-04-27T16:07:22.371Z,99324.75
2023-04-27T16:12:25.338Z,99326.09
2023-04-27T16:17:29.333Z,99311.25
2023-04-27T16:22:34.072Z,99296.50
2023-04-27T16:27:37.358Z,99297.75
2023-04-27T16:32:40.315Z,99301.31
2023-04-27T16:37:44.759Z,99293.38
2023-04-27T16:42:48.188Z,99300.63
2023-04-27T16:47:51.451Z,99302.56
2023-04-27T16:52:55.832Z,99297.06
2023-04-27T16:57:58.703Z,99303.34
2023-04-27T17:03:01.719Z,99312.75
2023-04-27T17:08:06.410Z,99312.66
2023-04-27T17:13:11.035Z,99313.63
2023-04-27T17:18:13.971Z,99313.97
2023-04-27T17:23:18.248Z,99315.19
2023-04-27T17:28:22.354Z,99320.16
2023-04-27T17:33:25.470Z,99317.16
2023-04-27T17:38:29.710Z,99319.38
2023-04-27T17:43:32.671Z,99311.13
2023-04-27T17:48:36.283Z,99330.09
2023-04-27T17:53:41.244Z,99332.50
2023-04-27T17:58:44.306Z,99333.50
2023-04-27T18:03:48.851Z,99329.25
2023-04-27T18:08:53.259Z,99343.19
2023-04-27T18:13:57.900Z,99340.97
2023-04-27T18:19:00.914Z,99346.41
2023-04-27T18:24:06.053Z,99348.78
2023-04-27T18:29:08.950Z,99358.63
2023-04-27T18:34:11.909Z,99353.06
2023-04-27T18:39:16.621Z,99357.47
2023-04-27T18:44:19.823Z,99367.50
2023-04-27T18:49:22.860Z,99369.47
2023-04-27T18:54:27.201Z,99377.03
2023-04-27T18:59:30.163Z,99377.00
2023-04-27T19:04:34.400Z,99383.56
2023-04-27T19:09:39.258Z,99388.69
2023-04-27T19:14:42.635Z,99393.56
2023-04-27T19:19:45.830Z,99391.72
2023-04-27T19:24:50.158Z,99393.03
2023-04-27T19:29:55.780Z,99396.41
2023-04-27T19:34:59.912Z,99389.50
2023-04-27T19:40:05.698Z,99394.31
2023-04-27T19:45:09.607Z,99396.22
2023-04-27T19:50:13.177Z,99393.88
2023-04-27T19:55:17.540Z,99379.19
2023-04-27T20:00:20.805Z,99365.75
2023-04-27T20:05:23.993Z,99355.94
2023-04-27T20:10:28.657Z,99367.91
2023-04-27T20:15:32.315Z,99370.19
2023-04-27T20:20:35.183Z,99368.13
2023-04-27T20:25:39.424Z,99375.31
2023-04-27T20:30:42.300Z,99361.72
2023-04-27T20:35:46.689Z,99364.97
2023-04-27T20:40:52.643Z,99363.56
2023-04-27T20:45:55.594Z,99372.94
2023-04-27T20:50:58.494Z,99364.28
2023-04-27T20:56:02.749Z,99363.38
2023-04-27T21:01:05.904Z,99363.56
2023-04-27T21:06:08.834Z,99357.91
2023-04-27T21:11:14.170Z,99369.28
2023-04-27T21:16:18.509Z,99355.25
2023-04-27T21:21:22.132Z,99340.69
2023-04-27T21:26:26.894Z,99336.97
2023-04-27T21:31:29.965Z,99335.81
2023-04-27T21:36:33.932Z,99343.22
2023-04-27T21:41:39.291Z,99342.81
2023-04-27T21:46:42.289Z,99344.03
2023-04-27T21:51:45.354Z,99331.03
2023-04-27T21:56:49.608Z,99328.59
2023-04-27T22:01:52.528Z,99330.22
2023-04-27T22:06:55.403Z,99329.00
2023-04-27T22:11:59.694Z,99325.69
2023-04-27T22:17:02.638Z,99327.56
2023-04-27T22:22:05.524Z,99325.47
2023-04-27T22:27:09.780Z,99326.94
2023-04-27T22:32:12.692Z,99335.72
2023-04-27T22:37:15.773Z,99333.50
2023-04-27T22:42:20.052Z,99326.41
2023-04-27T22:47:22.965Z,99331.16
2023-04-27T22:52:25.988Z,99331.50
2023-04-27T22:57:31.548Z,99331.88
2023-04-27T23:02:34.579Z,99331.53
2023-04-27T23:07:37.589Z,99328.63
2023-04-27T23:12:41.917Z,99317.94
2023-04-27T23:17:44.910Z,99319.75
2023-04-27T23:22:47.789Z,99318.91
2023-04-27T23:27:52.871Z,99310.50
2023-04-27T23:32:56.414Z,99306.31
2023-04-27T23:37:59.571Z,99301.78
2023-04-27T23:43:03.909Z,99302.44
2023-04-27T23:48:07.244Z,99292.38
2023-04-27T23:53:10.995Z,99285.25
2023-04-27T23:58:15.568Z,99280.34
